ORMM/BSR METAR and TAF weather

Enter ICAO airport designator
Station Type Date Time Source
ORMM METAR 2021/03/08 02:00 UTC NOAA

ORMM 080200Z 00000KT CAVOK 11/04 Q1014 NOSIG


Station Type Date Time Source
ORMM Decoded METAR 2021/03/08 02:00 UTC NOAA

Station name not available
Mar 07, 2021 - 09:00 PM EST / 2021.03.08 0200 UTC
Wind: Calm:0
Visibility: greater than 7 mile(s):0
Temperature: 51 F (11 C)
Dew Point: 39 F (4 C)
Relative Humidity: 61%
Pressure (altimeter): 29.94 in. Hg (1014 hPa)
ob: ORMM 080200Z 00000KT CAVOK 11/04 Q1014 NOSIG
cycle: 2

Station Type Date Time Source
ORMM TAF 2021/03/07 18:58 UTC NOAA

TAF ORMM 071600Z 0718/0818 28008KT CAVOK
TEMPO 0720/0804 VRB03KT 8000 NSC

Example: see airport list